createdAt,value
2023-03-24T00:01:09.160Z,8.27
2023-03-24T00:03:37.999Z,8.82
2023-03-24T00:06:07.599Z,8.10
2023-03-24T00:08:37.256Z,9.88
2023-03-24T00:11:07.346Z,7.10
2023-03-24T00:13:38.417Z,7.00
2023-03-24T00:16:08.188Z,7.85
2023-03-24T00:18:37.079Z,9.43
2023-03-24T00:21:05.938Z,8.65
2023-03-24T00:23:34.844Z,9.52
2023-03-24T00:26:04.870Z,8.90
2023-03-24T00:28:33.778Z,6.20
2023-03-24T00:31:03.558Z,9.25
2023-03-24T00:33:32.804Z,10.25
2023-03-24T00:36:02.131Z,8.02
2023-03-24T00:38:30.125Z,8.88
2023-03-24T00:40:58.900Z,8.57
2023-03-24T00:43:27.124Z,9.27
2023-03-24T00:46:01.893Z,8.20
2023-03-24T00:48:32.437Z,9.45
2023-03-24T00:51:02.930Z,7.05
2023-03-24T00:53:31.159Z,7.05
2023-03-24T00:56:00.112Z,5.70
2023-03-24T00:58:29.875Z,12.27
2023-03-24T01:00:59.147Z,8.80
2023-03-24T01:03:27.941Z,9.15
2023-03-24T01:06:03.203Z,7.50
2023-03-24T01:08:32.548Z,9.50
2023-03-24T01:11:01.529Z,5.53
2023-03-24T01:13:30.860Z,8.88
2023-03-24T01:15:59.221Z,9.95
2023-03-24T01:18:27.726Z,10.32
2023-03-24T01:20:58.290Z,7.93
2023-03-24T01:23:27.109Z,6.80
2023-03-24T01:25:55.352Z,9.38
2023-03-24T01:28:25.371Z,7.40
2023-03-24T01:30:54.341Z,8.38
2023-03-24T01:33:22.636Z,8.55
2023-03-24T01:35:51.076Z,9.40
2023-03-24T01:38:20.490Z,7.78
2023-03-24T01:40:48.976Z,6.15
2023-03-24T01:43:19.969Z,6.97
2023-03-24T01:45:59.965Z,7.57
2023-03-24T01:48:31.295Z,8.48
2023-03-24T01:51:03.846Z,7.20
2023-03-24T01:53:35.481Z,6.40
2023-03-24T01:56:04.335Z,7.18
2023-03-24T01:58:41.084Z,9.65
2023-03-24T02:01:32.374Z,6.00
2023-03-24T02:04:16.874Z,9.20
2023-03-24T02:06:46.720Z,8.73
2023-03-24T02:09:16.341Z,8.35
2023-03-24T02:11:45.806Z,7.63
2023-03-24T02:14:14.530Z,6.93
2023-03-24T02:17:04.263Z,7.78
2023-03-24T02:22:41.490Z,7.03
2023-03-24T02:25:54.690Z,8.52
2023-03-24T02:28:32.201Z,9.55
2023-03-24T02:31:16.277Z,7.75
2023-03-24T02:34:15.924Z,8.13
2023-03-24T02:37:21.223Z,7.53
2023-03-24T02:40:04.807Z,10.60
2023-03-24T02:42:43.279Z,7.55
2023-03-24T02:45:24.345Z,6.32
2023-03-24T02:48:09.165Z,7.30
2023-03-24T02:50:42.706Z,7.53
2023-03-24T02:53:17.248Z,7.85
2023-03-24T02:56:12.834Z,5.60
2023-03-24T02:58:48.408Z,6.15
2023-03-24T03:01:31.656Z,7.07
2023-03-24T03:04:16.800Z,4.43
2023-03-24T03:06:52.461Z,5.43
2023-03-24T03:09:23.141Z,4.00
2023-03-24T03:11:57.250Z,4.32
2023-03-24T03:14:29.933Z,9.50
2023-03-24T03:17:02.259Z,6.85
2023-03-24T03:19:33.246Z,4.80
2023-03-24T03:22:04.127Z,6.07
2023-03-24T03:24:34.974Z,7.10
2023-03-24T03:27:09.625Z,8.05
2023-03-24T03:29:41.416Z,5.50
2023-03-24T03:32:15.906Z,5.43
2023-03-24T03:34:48.093Z,6.65
2023-03-24T03:37:25.779Z,8.50
2023-03-24T03:39:57.376Z,5.90
2023-03-24T03:42:26.914Z,6.28
2023-03-24T03:44:55.359Z,6.35
2023-03-24T03:47:23.538Z,6.35
2023-03-24T03:49:52.156Z,3.30
2023-03-24T03:52:20.425Z,6.53
2023-03-24T03:54:51.890Z,7.50
2023-03-24T03:57:21.423Z,6.80
2023-03-24T04:00:16.638Z,6.43
2023-03-24T04:03:11.692Z,6.60
2023-03-24T04:05:47.894Z,8.85
2023-03-24T04:08:25.461Z,10.70
2023-03-24T04:11:11.653Z,9.45
2023-03-24T04:14:11.413Z,9.40
2023-03-24T04:16:59.497Z,8.93
2023-03-24T04:19:45.010Z,6.68
2023-03-24T04:22:25.281Z,11.55
2023-03-24T04:25:16.398Z,8.70
2023-03-24T04:27:48.745Z,11.02
2023-03-24T04:30:27.735Z,8.50
2023-03-24T04:33:00.237Z,8.82
2023-03-24T04:35:34.435Z,8.90
2023-03-24T04:38:23.124Z,7.13
2023-03-24T04:40:59.177Z,11.38
2023-03-24T04:43:36.558Z,9.60
2023-03-24T04:46:08.875Z,10.48
2023-03-24T04:48:58.523Z,10.60
2023-03-24T04:51:35.041Z,14.40
2023-03-24T04:54:08.709Z,11.95
2023-03-24T04:56:47.569Z,12.80
2023-03-24T04:59:29.188Z,11.60
2023-03-24T05:01:57.862Z,15.50
2023-03-24T05:04:37.200Z,17.23
2023-03-24T05:07:21.726Z,15.65
2023-03-24T05:09:52.536Z,14.70
2023-03-24T05:12:20.744Z,11.90
2023-03-24T05:15:08.027Z,16.73
2023-03-24T05:17:37.080Z,14.38
2023-03-24T05:20:10.805Z,13.80
2023-03-24T05:22:40.898Z,12.63
2023-03-24T05:25:09.744Z,11.93
2023-03-24T05:27:37.769Z,15.25
2023-03-24T05:30:20.209Z,10.90
2023-03-24T05:32:49.586Z,16.67
2023-03-24T05:35:18.870Z,13.55
2023-03-24T05:37:46.689Z,15.35
2023-03-24T05:40:15.728Z,13.18
2023-03-24T05:42:52.665Z,11.90
2023-03-24T05:45:22.140Z,15.50
2023-03-24T05:47:50.102Z,18.75
2023-03-24T05:50:24.304Z,16.10
2023-03-24T05:52:52.626Z,14.95
2023-03-24T05:55:41.653Z,17.63
2023-03-24T05:58:29.407Z,16.42
2023-03-24T06:00:59.871Z,14.05
2023-03-24T06:06:16.568Z,14.38
2023-03-24T06:08:47.318Z,16.27
2023-03-24T06:11:16.735Z,17.83
2023-03-24T06:13:59.083Z,16.63
2023-03-24T06:16:27.524Z,15.27
2023-03-24T06:19:00.921Z,17.00
2023-03-24T06:21:56.111Z,16.50
2023-03-24T06:24:30.028Z,14.40
2023-03-24T06:27:03.929Z,13.20
2023-03-24T06:32:02.622Z,16.75
2023-03-24T06:34:33.735Z,11.20
2023-03-24T06:37:16.747Z,12.35
2023-03-24T06:39:44.597Z,12.57
2023-03-24T06:42:14.577Z,17.00
2023-03-24T06:44:42.346Z,17.27
2023-03-24T06:47:10.462Z,15.50
2023-03-24T06:49:38.258Z,10.88
2023-03-24T06:52:06.632Z,10.70
2023-03-24T06:57:08.816Z,11.80
2023-03-24T06:59:59.132Z,13.50
2023-03-24T07:02:35.484Z,11.73
2023-03-24T07:05:08.688Z,9.70
2023-03-24T07:10:37.812Z,15.27
2023-03-24T07:13:05.903Z,16.80
2023-03-24T07:15:36.343Z,12.85
2023-03-24T07:18:05.541Z,11.15
2023-03-24T07:20:43.338Z,11.77
2023-03-24T07:23:16.825Z,16.23
2023-03-24T07:25:52.962Z,14.48
2023-03-24T07:28:34.276Z,14.13
2023-03-24T07:31:03.792Z,12.13
2023-03-24T07:33:32.551Z,13.65
2023-03-24T07:36:00.753Z,13.40
2023-03-24T07:38:29.066Z,12.02
2023-03-24T07:41:03.841Z,13.05
2023-03-24T07:43:33.495Z,14.55
2023-03-24T07:46:30.443Z,11.88
2023-03-24T07:49:03.355Z,15.70
2023-03-24T07:51:42.243Z,12.60
2023-03-24T07:54:27.087Z,10.32
2023-03-24T07:56:57.256Z,12.65
2023-03-24T07:59:26.826Z,13.27
2023-03-24T08:02:31.346Z,13.85
2023-03-24T08:05:23.023Z,13.23
2023-03-24T08:08:16.578Z,10.55
2023-03-24T08:10:45.918Z,10.40
2023-03-24T08:13:15.264Z,11.18
2023-03-24T08:15:43.072Z,12.07
2023-03-24T08:18:11.037Z,9.85
2023-03-24T08:20:38.947Z,9.65
2023-03-24T08:23:08.394Z,12.50
2023-03-24T08:25:37.328Z,9.60
2023-03-24T08:28:06.116Z,10.77
2023-03-24T08:30:36.096Z,12.73
2023-03-24T08:33:05.740Z,12.40
2023-03-24T08:35:38.825Z,14.38
2023-03-24T08:38:08.307Z,10.23
2023-03-24T08:40:38.659Z,13.43
2023-03-24T08:43:11.014Z,11.18
2023-03-24T08:45:40.217Z,13.07
2023-03-24T08:48:09.931Z,14.43
2023-03-24T08:50:39.731Z,11.05
2023-03-24T08:53:08.451Z,13.63
2023-03-24T08:55:37.720Z,13.95
2023-03-24T08:58:05.838Z,14.93
2023-03-24T09:00:33.666Z,9.65
2023-03-24T09:03:02.883Z,16.77
2023-03-24T09:05:44.044Z,16.67
2023-03-24T09:08:13.568Z,14.18
2023-03-24T09:10:42.355Z,12.32
2023-03-24T09:13:10.727Z,9.82
2023-03-24T09:15:38.678Z,8.30
2023-03-24T09:18:08.501Z,14.18
2023-03-24T09:20:36.351Z,10.65
2023-03-24T09:23:04.250Z,12.82
2023-03-24T09:25:32.046Z,9.80
2023-03-24T09:28:00.810Z,10.10
2023-03-24T09:30:30.535Z,15.02
2023-03-24T09:32:59.405Z,11.95
2023-03-24T09:35:29.139Z,18.63
2023-03-24T09:37:57.730Z,10.30
2023-03-24T09:40:27.533Z,9.95
2023-03-24T09:42:59.188Z,9.73
2023-03-24T09:45:30.661Z,9.65
2023-03-24T09:48:02.197Z,11.23
2023-03-24T09:50:40.196Z,10.05
2023-03-24T09:53:10.823Z,10.27
2023-03-24T09:55:43.133Z,10.95
2023-03-24T09:58:14.335Z,9.10
2023-03-24T10:00:43.236Z,7.95
2023-03-24T10:03:20.957Z,7.63
2023-03-24T10:05:55.389Z,11.15
2023-03-24T10:08:30.568Z,9.82
2023-03-24T10:11:04.533Z,11.02
2023-03-24T10:13:44.754Z,12.30
2023-03-24T10:16:21.392Z,12.07
2023-03-24T10:18:55.005Z,9.88
2023-03-24T10:21:27.775Z,8.52
2023-03-24T10:24:04.049Z,11.35
2023-03-24T10:26:41.476Z,8.73
2023-03-24T10:29:23.128Z,9.05
2023-03-24T10:31:55.312Z,8.98
2023-03-24T10:34:26.768Z,12.32
2023-03-24T10:36:57.569Z,11.80
2023-03-24T10:39:34.268Z,9.80
2023-03-24T10:42:16.750Z,13.95
2023-03-24T10:44:45.516Z,9.55
2023-03-24T10:47:15.450Z,9.65
2023-03-24T10:49:54.778Z,11.35
2023-03-24T10:52:25.398Z,10.13
2023-03-24T10:54:58.525Z,9.98
2023-03-24T10:57:28.504Z,9.32
2023-03-24T11:00:00.333Z,11.68
2023-03-24T11:02:30.843Z,12.77
2023-03-24T11:05:02.319Z,16.63
2023-03-24T11:07:34.871Z,12.00
2023-03-24T11:10:08.637Z,13.43
2023-03-24T11:12:38.804Z,12.70
2023-03-24T11:15:22.047Z,11.60
2023-03-24T11:17:56.644Z,12.45
2023-03-24T11:20:30.505Z,14.82
2023-03-24T11:23:04.377Z,12.30
2023-03-24T11:25:34.840Z,10.02
2023-03-24T11:28:08.842Z,9.65
2023-03-24T11:30:46.606Z,10.27
2023-03-24T11:33:34.948Z,9.40
2023-03-24T11:36:30.444Z,10.15
2023-03-24T11:39:05.397Z,7.82
2023-03-24T11:41:33.208Z,14.80
2023-03-24T11:44:17.934Z,9.35
2023-03-24T11:46:48.993Z,8.25
2023-03-24T11:49:21.188Z,9.73
2023-03-24T11:51:54.083Z,12.10
2023-03-24T11:54:29.614Z,9.10
2023-03-24T11:57:01.830Z,8.43
2023-03-24T11:59:35.767Z,6.82
2023-03-24T12:02:14.278Z,8.73
2023-03-24T12:05:14.940Z,6.82
2023-03-24T12:08:07.037Z,7.43
2023-03-24T12:10:54.412Z,8.20
2023-03-24T12:13:33.481Z,9.77
2023-03-24T12:16:21.876Z,11.23
2023-03-24T12:19:07.529Z,12.07
2023-03-24T12:21:51.033Z,7.20
2023-03-24T12:24:33.358Z,8.25
2023-03-24T12:27:02.602Z,9.70
2023-03-24T12:29:56.134Z,7.85
2023-03-24T12:32:47.166Z,9.00
2023-03-24T12:35:32.324Z,10.70
2023-03-24T12:38:11.498Z,9.82
2023-03-24T12:40:54.362Z,11.07
2023-03-24T12:45:59.460Z,15.57
2023-03-24T12:48:52.017Z,7.45
2023-03-24T12:51:29.092Z,7.97
2023-03-24T12:54:09.882Z,10.43
2023-03-24T12:56:41.974Z,6.13
2023-03-24T12:59:19.084Z,5.93
2023-03-24T13:01:51.623Z,8.32
2023-03-24T13:04:24.324Z,6.68
2023-03-24T13:06:56.620Z,6.18
2023-03-24T13:09:36.876Z,5.32
2023-03-24T13:12:11.451Z,6.75
2023-03-24T13:14:51.668Z,7.22
2023-03-24T13:17:23.309Z,6.65
2023-03-24T13:19:53.016Z,7.60
2023-03-24T13:22:24.253Z,9.98
2023-03-24T13:24:54.850Z,9.45
2023-03-24T13:27:25.259Z,11.43
2023-03-24T13:30:21.136Z,9.80
2023-03-24T13:32:53.332Z,11.25
2023-03-24T13:35:38.034Z,7.10
2023-03-24T13:38:16.440Z,8.25
2023-03-24T13:40:53.199Z,9.45
2023-03-24T13:43:24.767Z,8.13
2023-03-24T13:46:00.618Z,9.50
2023-03-24T13:48:37.605Z,9.05
2023-03-24T13:53:39.962Z,9.25
2023-03-24T13:56:10.135Z,7.60
2023-03-24T13:58:50.937Z,7.03
2023-03-24T14:01:37.913Z,8.48
2023-03-24T14:04:29.203Z,8.32
2023-03-24T14:06:59.673Z,6.70
2023-03-24T14:09:29.345Z,7.25
2023-03-24T14:12:18.613Z,7.57
2023-03-24T14:15:17.846Z,5.72
2023-03-24T14:17:49.372Z,5.57
2023-03-24T14:20:41.070Z,4.60
2023-03-24T14:23:23.169Z,6.38
2023-03-24T14:25:55.564Z,6.03
2023-03-24T14:28:29.209Z,8.75
2023-03-24T14:31:04.065Z,5.10
2023-03-24T14:33:33.429Z,7.45
2023-03-24T14:36:06.422Z,6.40
2023-03-24T14:38:37.938Z,6.80
2023-03-24T14:41:14.351Z,6.97
2023-03-24T14:43:56.995Z,4.57
2023-03-24T14:46:38.029Z,5.55
2023-03-24T14:49:18.297Z,7.13
2023-03-24T14:51:52.370Z,6.03
2023-03-24T14:54:33.816Z,7.03
2023-03-24T14:57:01.876Z,8.63
2023-03-24T14:59:40.493Z,7.95
2023-03-24T15:02:28.139Z,6.25
2023-03-24T15:05:29.933Z,5.35
2023-03-24T15:08:04.269Z,7.78
2023-03-24T15:10:40.599Z,6.20
2023-03-24T15:13:29.273Z,8.52
2023-03-24T15:15:57.594Z,7.00
2023-03-24T15:18:26.051Z,7.78
2023-03-24T15:20:55.501Z,6.05
2023-03-24T15:23:25.791Z,7.25
2023-03-24T15:25:55.386Z,4.43
2023-03-24T15:28:27.295Z,8.48
2023-03-24T15:30:59.257Z,9.27
2023-03-24T15:33:30.754Z,5.57
2023-03-24T15:36:02.199Z,7.55
2023-03-24T15:38:31.503Z,8.63
2023-03-24T15:41:02.105Z,6.28
2023-03-24T15:43:30.994Z,8.40
2023-03-24T15:46:11.858Z,8.68
2023-03-24T15:48:40.378Z,8.85
2023-03-24T15:51:12.381Z,12.57
2023-03-24T15:53:44.754Z,6.53
2023-03-24T15:56:19.398Z,7.15
2023-03-24T15:58:50.757Z,7.65
2023-03-24T16:01:21.936Z,10.60
2023-03-24T16:03:49.973Z,9.43
2023-03-24T16:06:29.616Z,7.75
2023-03-24T16:09:00.973Z,9.70
2023-03-24T16:11:30.312Z,10.90
2023-03-24T16:13:59.432Z,9.70
2023-03-24T16:16:30.044Z,9.43
2023-03-24T16:18:59.216Z,8.85
2023-03-24T16:21:30.761Z,12.27
2023-03-24T16:23:59.487Z,9.95
2023-03-24T16:26:29.006Z,12.15
2023-03-24T16:29:01.732Z,7.22
2023-03-24T16:31:32.160Z,6.05
2023-03-24T16:34:00.288Z,8.93
2023-03-24T16:36:29.397Z,10.07
2023-03-24T16:39:00.483Z,8.40
2023-03-24T16:41:28.574Z,7.60
2023-03-24T16:43:56.521Z,8.88
2023-03-24T16:46:34.304Z,9.27
2023-03-24T16:49:04.293Z,11.43
2023-03-24T16:51:33.607Z,9.82
2023-03-24T16:54:01.838Z,5.78
2023-03-24T16:56:30.235Z,9.18
2023-03-24T16:58:58.187Z,6.32
2023-03-24T17:01:33.451Z,9.27
2023-03-24T17:04:03.364Z,8.85
2023-03-24T17:06:33.932Z,4.38
2023-03-24T17:09:01.712Z,7.15
2023-03-24T17:11:33.042Z,7.70
2023-03-24T17:14:04.498Z,8.07
2023-03-24T17:16:33.367Z,8.48
2023-03-24T17:19:01.142Z,7.43
2023-03-24T17:21:29.053Z,6.70
2023-03-24T17:23:58.208Z,5.97
2023-03-24T17:26:26.368Z,7.90
2023-03-24T17:28:54.175Z,8.07
2023-03-24T17:31:22.027Z,9.05
2023-03-24T17:33:49.946Z,7.35
2023-03-24T17:36:18.402Z,5.40
2023-03-24T17:38:47.299Z,7.53
2023-03-24T17:41:16.866Z,8.65
2023-03-24T17:43:47.211Z,8.88
2023-03-24T17:46:15.376Z,7.53
2023-03-24T17:48:45.801Z,13.05
2023-03-24T17:51:14.565Z,9.95
2023-03-24T17:53:44.995Z,9.48
2023-03-24T17:56:13.143Z,9.35
2023-03-24T17:58:47.018Z,10.27
2023-03-24T18:01:18.239Z,8.18
2023-03-24T18:03:46.293Z,12.82
2023-03-24T18:06:16.359Z,10.77
2023-03-24T18:08:44.400Z,9.70
2023-03-24T18:11:14.433Z,8.55
2023-03-24T18:13:44.801Z,12.27
2023-03-24T18:16:21.441Z,13.88
2023-03-24T18:18:50.999Z,9.38
2023-03-24T18:21:19.512Z,11.00
2023-03-24T18:23:48.525Z,13.82
2023-03-24T18:26:18.510Z,12.55
2023-03-24T18:28:47.684Z,9.45
2023-03-24T18:31:20.000Z,9.73
2023-03-24T18:33:48.815Z,9.70
2023-03-24T18:36:21.034Z,9.38
2023-03-24T18:38:49.560Z,9.80
2023-03-24T18:41:18.386Z,8.75
2023-03-24T18:43:48.395Z,11.35
2023-03-24T18:46:16.937Z,14.48
2023-03-24T18:48:45.490Z,10.57
2023-03-24T18:51:13.422Z,7.55
2023-03-24T18:53:41.677Z,11.88
2023-03-24T18:56:10.233Z,6.45
2023-03-24T18:58:39.081Z,8.57
2023-03-24T19:01:11.080Z,7.68
2023-03-24T19:03:40.774Z,7.40
2023-03-24T19:06:10.406Z,11.20
2023-03-24T19:08:40.865Z,8.90
2023-03-24T19:11:09.841Z,15.95
2023-03-24T19:13:38.199Z,8.25
2023-03-24T19:16:09.016Z,10.13
2023-03-24T19:18:37.547Z,8.88
2023-03-24T19:21:06.946Z,13.50
2023-03-24T19:23:35.807Z,9.13
2023-03-24T19:26:03.961Z,9.43
2023-03-24T19:28:33.579Z,11.18
2023-03-24T19:31:09.654Z,8.00
2023-03-24T19:33:38.363Z,8.43
2023-03-24T19:36:07.650Z,7.95
2023-03-24T19:38:36.945Z,7.28
2023-03-24T19:41:07.109Z,7.82
2023-03-24T19:43:35.880Z,7.85
2023-03-24T19:46:04.889Z,8.65
2023-03-24T19:48:34.630Z,7.03
2023-03-24T19:51:02.727Z,7.38
2023-03-24T19:53:30.765Z,9.45
2023-03-24T19:55:59.718Z,7.78
2023-03-24T19:58:27.641Z,8.43
2023-03-24T20:00:55.488Z,7.97
2023-03-24T20:03:23.725Z,7.82
2023-03-24T20:05:53.126Z,7.97
2023-03-24T20:08:21.566Z,8.73
2023-03-24T20:10:49.397Z,9.15
2023-03-24T20:13:17.202Z,9.90
2023-03-24T20:15:46.945Z,7.43
2023-03-24T20:18:14.805Z,7.18
2023-03-24T20:20:42.628Z,6.57
2023-03-24T20:23:11.782Z,9.38
2023-03-24T20:25:42.303Z,6.93
2023-03-24T20:28:10.386Z,11.40
2023-03-24T20:30:40.319Z,9.98
2023-03-24T20:33:08.229Z,9.25
2023-03-24T20:35:36.721Z,7.57
2023-03-24T20:38:04.719Z,4.82
2023-03-24T20:40:33.926Z,7.22
2023-03-24T20:43:01.763Z,8.55
2023-03-24T20:45:29.636Z,5.93
2023-03-24T20:47:57.475Z,7.28
2023-03-24T20:50:25.246Z,9.27
2023-03-24T20:52:53.028Z,5.72
2023-03-24T20:55:20.852Z,10.98
2023-03-24T20:57:49.974Z,6.30
2023-03-24T21:00:20.308Z,9.38
2023-03-24T21:02:48.230Z,6.22
2023-03-24T21:05:16.075Z,9.27
2023-03-24T21:07:45.500Z,8.98
2023-03-24T21:10:14.394Z,10.25
2023-03-24T21:12:54.084Z,9.15
2023-03-24T21:15:24.717Z,6.65
2023-03-24T21:17:53.229Z,8.23
2023-03-24T21:20:21.097Z,8.57
2023-03-24T21:22:53.534Z,6.78
2023-03-24T21:25:22.503Z,9.30
2023-03-24T21:27:50.350Z,9.73
2023-03-24T21:30:19.322Z,10.27
2023-03-24T21:32:49.602Z,6.93
2023-03-24T21:35:19.675Z,10.70
2023-03-24T21:37:48.606Z,7.50
2023-03-24T21:40:18.597Z,7.97
2023-03-24T21:42:49.824Z,8.10
2023-03-24T21:50:22.791Z,10.40
2023-03-24T21:52:51.606Z,9.10
2023-03-24T21:55:20.478Z,10.00
2023-03-24T21:57:50.494Z,10.25
2023-03-24T22:00:20.451Z,7.50
2023-03-24T22:02:51.465Z,7.25
2023-03-24T22:05:21.280Z,8.38
2023-03-24T22:07:50.035Z,10.73
2023-03-24T22:10:22.588Z,10.40
2023-03-24T22:12:51.148Z,7.72
2023-03-24T22:15:19.529Z,9.43
2023-03-24T22:17:47.518Z,9.25
2023-03-24T22:20:17.272Z,9.43
2023-03-24T22:22:45.801Z,7.50
2023-03-24T22:25:15.760Z,10.77
2023-03-24T22:27:43.541Z,6.45
2023-03-24T22:30:14.588Z,6.68
2023-03-24T22:32:43.000Z,7.95
2023-03-24T22:35:11.268Z,10.55
2023-03-24T22:37:40.411Z,9.07
2023-03-24T22:40:09.668Z,9.25
2023-03-24T22:42:37.582Z,8.80
2023-03-24T22:45:06.333Z,7.22
2023-03-24T22:47:34.226Z,8.90
2023-03-24T22:50:02.060Z,7.97
2023-03-24T22:52:30.430Z,7.25
2023-03-24T22:54:59.603Z,7.50
2023-03-24T22:57:27.407Z,10.20
2023-03-24T22:59:56.813Z,8.93
2023-03-24T23:02:24.846Z,5.45
2023-03-24T23:04:55.145Z,8.48
2023-03-24T23:07:23.318Z,7.15
2023-03-24T23:09:53.292Z,9.48
2023-03-24T23:12:24.951Z,8.55
2023-03-24T23:14:54.313Z,9.93
2023-03-24T23:17:24.124Z,9.27
2023-03-24T23:19:52.497Z,9.48
2023-03-24T23:22:21.178Z,7.00
2023-03-24T23:24:49.012Z,8.52
2023-03-24T23:27:17.376Z,10.18
2023-03-24T23:29:46.455Z,10.35
2023-03-24T23:32:14.351Z,8.65
2023-03-24T23:34:44.062Z,10.50
2023-03-24T23:37:11.844Z,9.77
2023-03-24T23:39:39.606Z,13.13
2023-03-24T23:42:07.416Z,9.10
2023-03-24T23:44:35.394Z,5.72
2023-03-24T23:47:04.700Z,10.25
2023-03-24T23:49:32.434Z,9.60
2023-03-24T23:52:00.183Z,10.73
2023-03-24T23:54:27.965Z,10.25
2023-03-24T23:56:56.229Z,12.75
2023-03-24T23:59:24.037Z,8.23
